Time;durP1;ratioP1;P1;durP2;ratioP2;P2;SDS_P1;SDS_P2;PMS_P1;PMS_P2;Temp;Humidity;BMP_temperature;BMP_pressure;BME280_temperature;BME280_humidity;BME280_pressure;Samples;Min_cycle;Max_cycle;Signal;HPM_P1;HPM_P2
2022/09/24 00:04:23;;;;;;;4.22;3.15;;;;;;;;;;10256997;28;20023;-77
2022/09/24 00:09:23;;;;;;;4.82;3.05;;;;;;;;;;10258595;28;20070;-75
2022/09/24 00:14:23;;;;;;;8.23;3.58;;;;;;;;;;10259677;28;20513;-74
2022/09/24 00:19:24;;;;;;;4.28;3.50;;;;;;;;;;10265746;28;20492;-78
2022/09/24 00:29:43;;;;;;;4.45;3.38;;;;;;;;;;10282601;28;20026;-78
2022/09/24 00:34:43;;;;;;;4.50;3.67;;;;;;;;;;10265437;28;20027;-78
2022/09/24 00:39:44;;;;;;;6.03;3.72;;;;;;;;;;10265018;28;20548;-77
2022/09/24 00:44:51;;;;;;;4.65;3.65;;;;;;;;;;10264669;28;20042;-77
2022/09/24 00:49:54;;;;;;;5.30;3.75;;;;;;;;;;10264572;28;20050;-78
2022/09/24 00:54:54;;;;;;;6.47;4.20;;;;;;;;;;10262650;28;20452;-78
2022/09/24 00:59:55;;;;;;;8.23;4.47;;;;;;;;;;10282296;28;20018;-79
2022/09/24 01:04:55;;;;;;;7.05;4.55;;;;;;;;;;10264402;28;20267;-79
2022/09/24 01:09:56;;;;;;;6.50;4.75;;;;;;;;;;10263786;28;20022;-75
2022/09/24 01:14:56;;;;;;;5.80;3.75;;;;;;;;;;10264395;28;20077;-78
2022/09/24 01:20:15;;;;;;;6.47;3.80;;;;;;;;;;10263743;28;20457;-78
2022/09/24 01:25:22;;;;;;;5.93;4.25;;;;;;;;;;10263044;28;20437;-73
2022/09/24 01:30:24;;;;;;;7.80;4.72;;;;;;;;;;10263494;28;20025;-78
2022/09/24 01:35:24;;;;;;;10.30;4.18;;;;;;;;;;10280915;28;20110;-76
2022/09/24 01:40:26;;;;;;;7.15;4.22;;;;;;;;;;10263290;28;20027;-77
2022/09/24 01:45:31;;;;;;;6.65;4.63;;;;;;;;;;10261629;28;20457;-79
2022/09/24 01:50:41;;;;;;;9.27;4.93;;;;;;;;;;10263316;28;20804;-77
2022/09/24 01:55:44;;;;;;;8.10;5.13;;;;;;;;;;10263307;28;20061;-77
2022/09/24 02:00:46;;;;;;;8.20;4.97;;;;;;;;;;10263470;28;20043;-76
2022/09/24 02:05:49;;;;;;;9.63;5.43;;;;;;;;;;10244821;28;20058;-78
2022/09/24 02:10:55;;;;;;;7.85;5.43;;;;;;;;;;10261578;28;20027;-74
2022/09/24 02:15:58;;;;;;;6.72;4.20;;;;;;;;;;10271777;28;20038;-74
2022/09/24 02:21:02;;;;;;;7.88;4.95;;;;;;;;;;10267458;28;20457;-74
2022/09/24 02:26:02;;;;;;;10.25;5.30;;;;;;;;;;10259918;28;20023;-79
2022/09/24 02:31:09;;;;;;;9.75;5.10;;;;;;;;;;10261030;28;20022;-76
2022/09/24 02:36:10;;;;;;;11.48;6.25;;;;;;;;;;10259970;28;20031;-76
2022/09/24 02:41:11;;;;;;;8.98;6.05;;;;;;;;;;10260903;28;20019;-76
2022/09/24 02:46:12;;;;;;;9.68;6.00;;;;;;;;;;10262961;28;20424;-79
2022/09/24 02:51:12;;;;;;;8.98;6.75;;;;;;;;;;10261533;28;20026;-79
2022/09/24 02:56:12;;;;;;;9.75;6.05;;;;;;;;;;10260928;28;20031;-77
2022/09/24 03:01:12;;;;;;;9.93;6.32;;;;;;;;;;10260251;28;20382;-78
2022/09/24 03:06:13;;;;;;;8.27;5.65;;;;;;;;;;10259861;28;20066;-78
2022/09/24 03:11:13;;;;;;;8.30;5.25;;;;;;;;;;10276074;28;20520;-75
2022/09/24 03:16:14;;;;;;;13.40;6.45;;;;;;;;;;10260732;28;20090;-74
2022/09/24 03:21:16;;;;;;;10.23;6.28;;;;;;;;;;10259259;28;20038;-77
2022/09/24 03:26:16;;;;;;;10.32;6.57;;;;;;;;;;10262361;28;20023;-78
2022/09/24 03:31:17;;;;;;;9.20;5.53;;;;;;;;;;10257366;28;20464;-77
2022/09/24 03:36:27;;;;;;;10.48;5.97;;;;;;;;;;10259244;28;20026;-78
2022/09/24 03:41:27;;;;;;;8.80;5.80;;;;;;;;;;10278059;28;20380;-79
2022/09/24 03:46:28;;;;;;;13.43;6.40;;;;;;;;;;10259863;28;20573;-78
2022/09/24 03:51:29;;;;;;;12.07;7.55;;;;;;;;;;10277553;28;20039;-77
2022/09/24 03:56:29;;;;;;;10.45;6.80;;;;;;;;;;10259270;28;20409;-72
2022/09/24 04:01:30;;;;;;;18.27;7.97;;;;;;;;;;10258428;28;20081;-72
2022/09/24 04:06:30;;;;;;;11.93;7.03;;;;;;;;;;10259760;28;20019;-76
2022/09/24 04:11:33;;;;;;;11.75;6.75;;;;;;;;;;10257781;28;20042;-79
2022/09/24 04:16:33;;;;;;;13.30;7.40;;;;;;;;;;10263306;28;20031;-74
2022/09/24 04:21:34;;;;;;;16.65;7.63;;;;;;;;;;10256858;28;20035;-74
2022/09/24 04:26:34;;;;;;;8.73;7.05;;;;;;;;;;10272026;28;21334;-74
2022/09/24 04:31:34;;;;;;;8.93;6.10;;;;;;;;;;10265541;28;20015;-74
2022/09/24 04:36:34;;;;;;;11.32;6.47;;;;;;;;;;10264373;28;20022;-74
2022/09/24 04:41:36;;;;;;;12.05;7.25;;;;;;;;;;10242283;28;20413;-78
2022/09/24 04:46:36;;;;;;;9.57;6.50;;;;;;;;;;10264540;28;20081;-78
2022/09/24 04:51:36;;;;;;;7.88;5.97;;;;;;;;;;10264897;28;20023;-74
2022/09/24 04:56:37;;;;;;;11.90;7.27;;;;;;;;;;10261456;28;20085;-78
2022/09/24 05:01:37;;;;;;;10.95;7.50;;;;;;;;;;10264677;28;20656;-77
2022/09/24 05:06:37;;;;;;;18.38;7.10;;;;;;;;;;10264211;28;20018;-78
2022/09/24 05:11:38;;;;;;;11.02;6.40;;;;;;;;;;10265106;28;20274;-77
2022/09/24 05:16:38;;;;;;;13.00;6.53;;;;;;;;;;10280790;28;20031;-73
2022/09/24 05:21:38;;;;;;;13.37;6.43;;;;;;;;;;10262117;28;20018;-77
2022/09/24 05:31:59;;;;;;;7.65;4.82;;;;;;;;;;10281698;28;20019;-78
2022/09/24 05:37:00;;;;;;;8.10;5.05;;;;;;;;;;10261364;28;20015;-77
2022/09/24 05:42:03;;;;;;;5.30;4.43;;;;;;;;;;10263407;28;20034;-77
2022/09/24 05:47:03;;;;;;;7.70;5.32;;;;;;;;;;10262665;28;20045;-77
2022/09/24 05:52:03;;;;;;;6.55;4.43;;;;;;;;;;10261410;28;20412;-77
2022/09/24 05:57:04;;;;;;;10.57;5.00;;;;;;;;;;10271372;28;20622;-78
2022/09/24 06:02:04;;;;;;;5.93;4.40;;;;;;;;;;10271745;28;20451;-75
2022/09/24 06:07:04;;;;;;;10.07;5.43;;;;;;;;;;10270186;28;20097;-77
2022/09/24 06:12:06;;;;;;;7.93;5.32;;;;;;;;;;10271363;28;20662;-77
2022/09/24 06:17:07;;;;;;;11.55;5.68;;;;;;;;;;10256014;28;20068;-73
2022/09/24 06:22:07;;;;;;;9.20;5.75;;;;;;;;;;10265389;28;20085;-78
2022/09/24 06:27:07;;;;;;;8.52;5.60;;;;;;;;;;10264966;28;21286;-79
2022/09/24 06:32:08;;;;;;;8.60;5.97;;;;;;;;;;10266201;28;20105;-74
2022/09/24 06:37:08;;;;;;;9.95;5.70;;;;;;;;;;10265157;28;20281;-74
2022/09/24 06:42:10;;;;;;;12.25;6.32;;;;;;;;;;10259254;28;20093;-74
2022/09/24 06:47:11;;;;;;;13.13;6.32;;;;;;;;;;10254046;28;20035;-74
2022/09/24 06:52:12;;;;;;;17.75;5.97;;;;;;;;;;10282186;28;20523;-74
2022/09/24 06:57:12;;;;;;;8.45;6.15;;;;;;;;;;10259026;28;20025;-80
2022/09/24 07:02:12;;;;;;;13.02;6.57;;;;;;;;;;10260808;28;20380;-80
2022/09/24 07:07:28;;;;;;;17.60;7.60;;;;;;;;;;10262663;28;20023;-78
2022/09/24 07:12:29;;;;;;;11.77;5.63;;;;;;;;;;10262272;28;20031;-79
2022/09/24 07:17:29;;;;;;;9.88;5.20;;;;;;;;;;10279938;28;20555;-74
2022/09/24 07:22:29;;;;;;;13.00;5.88;;;;;;;;;;10263622;28;20069;-74
2022/09/24 07:27:29;;;;;;;11.30;5.15;;;;;;;;;;10278427;28;20073;-74
2022/09/24 07:32:30;;;;;;;11.60;5.25;;;;;;;;;;10258570;28;20054;-74
2022/09/24 07:37:33;;;;;;;8.82;4.07;;;;;;;;;;10257222;28;20022;-76
2022/09/24 07:42:33;;;;;;;8.20;4.68;;;;;;;;;;10261983;28;20029;-73
2022/09/24 07:47:34;;;;;;;16.95;5.15;;;;;;;;;;10262205;28;20050;-74
2022/09/24 07:52:34;;;;;;;6.77;4.00;;;;;;;;;;10261305;28;20026;-75
2022/09/24 07:57:34;;;;;;;7.80;4.10;;;;;;;;;;10261086;28;20272;-74
2022/09/24 08:02:35;;;;;;;7.05;4.13;;;;;;;;;;10258532;28;20041;-81
2022/09/24 08:07:35;;;;;;;11.33;4.27;;;;;;;;;;10266212;28;20421;-75
2022/09/24 08:12:35;;;;;;;8.13;3.50;;;;;;;;;;10266074;28;20023;-78
2022/09/24 08:17:35;;;;;;;15.00;4.30;;;;;;;;;;10298285;23;20165;-79
2022/09/24 08:22:36;;;;;;;9.07;4.00;;;;;;;;;;10263600;28;20031;-74
2022/09/24 08:27:36;;;;;;;8.75;4.05;;;;;;;;;;10265887;28;20023;-77
2022/09/24 08:32:36;;;;;;;10.27;4.87;;;;;;;;;;10264480;28;20027;-80
2022/09/24 08:37:37;;;;;;;6.43;4.40;;;;;;;;;;10264147;28;20050;-75
2022/09/24 08:42:48;;;;;;;10.15;4.55;;;;;;;;;;10264290;28;20023;-74
2022/09/24 08:47:54;;;;;;;9.52;4.53;;;;;;;;;;10282519;28;20441;-73
2022/09/24 08:52:54;;;;;;;7.32;5.03;;;;;;;;;;10240834;28;20081;-75
2022/09/24 08:58:09;;;;;;;9.15;5.93;;;;;;;;;;10265243;28;20031;-75
2022/09/24 09:03:20;;;;;;;9.73;5.53;;;;;;;;;;10261241;28;20460;-76
2022/09/24 09:08:26;;;;;;;9.65;4.72;;;;;;;;;;10265606;28;20061;-75
2022/09/24 09:13:33;;;;;;;8.80;4.50;;;;;;;;;;10264225;28;20060;-76
2022/09/24 09:18:41;;;;;;;6.75;4.20;;;;;;;;;;10279646;28;20089;-74
2022/09/24 09:23:48;;;;;;;6.28;4.20;;;;;;;;;;10263723;28;20054;-77
2022/09/24 09:28:48;;;;;;;6.13;3.90;;;;;;;;;;10261513;28;20035;-74
2022/09/24 09:33:49;;;;;;;5.93;3.20;;;;;;;;;;10263532;28;20100;-74
2022/09/24 09:39:00;;;;;;;6.72;2.60;;;;;;;;;;10261805;28;20562;-74
2022/09/24 09:44:09;;;;;;;3.63;2.25;;;;;;;;;;10261905;28;20816;-75
2022/09/24 09:49:10;;;;;;;2.92;1.80;;;;;;;;;;10270060;28;20057;-76
2022/09/24 09:54:10;;;;;;;4.47;2.27;;;;;;;;;;10262806;28;20400;-78
2022/09/24 09:59:10;;;;;;;5.90;2.50;;;;;;;;;;10263507;28;20314;-74
2022/09/24 10:04:29;;;;;;;6.70;2.40;;;;;;;;;;10262794;28;20034;-74
2022/09/24 10:09:29;;;;;;;13.60;3.45;;;;;;;;;;10260129;28;20540;-74
2022/09/24 10:14:29;;;;;;;5.10;2.85;;;;;;;;;;10262452;28;20059;-73
2022/09/24 10:19:32;;;;;;;3.90;2.22;;;;;;;;;;10262588;28;20026;-73
2022/09/24 10:24:33;;;;;;;3.88;2.03;;;;;;;;;;10261019;28;20019;-73
2022/09/24 10:34:57;;;;;;;4.88;2.50;;;;;;;;;;10279928;28;20486;-76
2022/09/24 10:40:02;;;;;;;3.55;2.30;;;;;;;;;;10261474;28;20022;-73
2022/09/24 10:45:03;;;;;;;5.07;2.17;;;;;;;;;;10269423;28;20027;-74
2022/09/24 10:50:24;;;;;;;2.55;1.98;;;;;;;;;;10298061;23;20055;-74
2022/09/24 10:55:27;;;;;;;5.07;2.60;;;;;;;;;;10265325;28;20102;-75
2022/09/24 11:00:37;;;;;;;5.43;2.22;;;;;;;;;;10268888;28;20122;-78
2022/09/24 11:05:44;;;;;;;7.68;2.22;;;;;;;;;;10278473;28;20027;-80
2022/09/24 11:11:20;;;;;;;4.18;2.20;;;;;;;;;;10267647;28;20031;-74
2022/09/24 11:16:22;;;;;;;5.72;1.92;;;;;;;;;;10150821;28;20141;-76
2022/09/24 11:21:29;;;;;;;4.13;2.22;;;;;;;;;;10285957;28;20027;-79
2022/09/24 11:26:29;;;;;;;;;;;;;;;;;;10267304;28;20799;-79
2022/09/24 11:31:37;;;;;;;4.78;2.30;;;;;;;;;;10267773;28;19912;-79
2022/09/24 11:36:37;;;;;;;;;;;;;;;;;;10267385;28;20109;-75
2022/09/24 11:41:51;;;;;;;3.03;1.95;;;;;;;;;;10266392;28;19920;-80
2022/09/24 11:47:04;;;;;;;8.00;2.55;;;;;;;;;;10282741;28;20153;-79
2022/09/24 11:52:08;;;;;;;3.42;2.38;;;;;;;;;;10289444;28;20466;-74
2022/09/24 11:57:11;;;;;;;4.72;2.03;;;;;;;;;;10266890;28;20053;-80
2022/09/24 12:02:16;;;;;;;5.93;2.03;;;;;;;;;;10266878;28;20350;-79
2022/09/24 12:07:22;;;;;;;6.75;2.38;;;;;;;;;;10264011;28;20035;-79
2022/09/24 12:12:34;;;;;;;4.10;2.38;;;;;;;;;;10264983;28;20011;-78
2022/09/24 12:17:37;;;;;;;3.08;2.00;;;;;;;;;;10283253;28;20023;-78
2022/09/24 12:22:39;;;;;;;2.60;2.08;;;;;;;;;;10264164;28;20023;-80
2022/09/24 12:27:39;;;;;;;4.70;2.15;;;;;;;;;;10265170;28;20015;-79
2022/09/24 12:32:53;;;;;;;5.25;1.77;;;;;;;;;;10264137;28;20246;-77
2022/09/24 12:38:06;;;;;;;7.38;2.65;;;;;;;;;;10272493;28;20027;-78
2022/09/24 12:43:12;;;;;;;2.70;1.80;;;;;;;;;;10281144;28;20053;-81
2022/09/24 12:48:15;;;;;;;4.30;2.00;;;;;;;;;;10281997;28;20057;-78
2022/09/24 12:53:23;;;;;;;3.80;2.28;;;;;;;;;;10264446;28;20049;-79
2022/09/24 12:58:30;;;;;;;3.13;2.45;;;;;;;;;;10261261;28;20034;-78
2022/09/24 13:03:32;;;;;;;5.20;1.90;;;;;;;;;;10280785;28;20404;-79
2022/09/24 13:08:37;;;;;;;5.63;2.42;;;;;;;;;;10264188;28;20026;-75
2022/09/24 13:13:43;;;;;;;4.57;2.25;;;;;;;;;;10261733;28;20030;-75
2022/09/24 13:18:51;;;;;;;3.42;1.88;;;;;;;;;;10263412;28;20022;-75
2022/09/24 13:23:52;;;;;;;2.17;1.50;;;;;;;;;;10264139;28;20782;-79
2022/09/24 13:28:57;;;;;;;5.00;2.05;;;;;;;;;;10264161;28;20117;-78
2022/09/24 13:34:03;;;;;;;2.05;1.52;;;;;;;;;;10269348;28;20097;-74
2022/09/24 13:39:16;;;;;;;6.97;1.70;;;;;;;;;;10263599;28;20121;-74
2022/09/24 13:44:22;;;;;;;2.65;1.88;;;;;;;;;;10261952;28;20027;-75
2022/09/24 13:49:23;;;;;;;2.42;1.67;;;;;;;;;;10262693;28;20120;-75
2022/09/24 13:54:28;;;;;;;2.65;2.08;;;;;;;;;;10264012;28;20054;-75
2022/09/24 13:59:30;;;;;;;5.38;2.00;;;;;;;;;;10263121;28;20019;-79
2022/09/24 14:04:30;;;;;;;5.15;1.88;;;;;;;;;;10280439;28;20061;-78
2022/09/24 14:09:31;;;;;;;5.68;2.10;;;;;;;;;;10262474;28;20072;-79
2022/09/24 14:14:34;;;;;;;2.63;1.73;;;;;;;;;;10264345;28;20057;-75
2022/09/24 14:19:35;;;;;;;3.08;1.70;;;;;;;;;;10287188;28;20030;-76
2022/09/24 14:24:43;;;;;;;3.58;1.95;;;;;;;;;;10265791;28;20361;-76
2022/09/24 14:29:43;;;;;;;2.55;1.80;;;;;;;;;;10284389;28;20023;-78
2022/09/24 14:34:44;;;;;;;2.70;1.85;;;;;;;;;;10269912;28;20030;-75
2022/09/24 14:39:46;;;;;;;2.53;1.87;;;;;;;;;;10283199;28;20046;-78
2022/09/24 14:44:47;;;;;;;3.85;2.25;;;;;;;;;;10276947;28;20038;-73
2022/09/24 14:49:49;;;;;;;2.92;1.88;;;;;;;;;;10278883;28;20110;-72
2022/09/24 14:54:59;;;;;;;3.83;1.90;;;;;;;;;;10263180;28;20023;-75
2022/09/24 14:59:59;;;;;;;3.13;1.83;;;;;;;;;;10263416;28;20082;-73
2022/09/24 15:05:01;;;;;;;5.63;2.10;;;;;;;;;;10261922;28;20135;-75
2022/09/24 15:10:03;;;;;;;8.63;3.03;;;;;;;;;;10260319;28;20034;-72
2022/09/24 15:15:06;;;;;;;2.70;2.08;;;;;;;;;;10259842;28;20053;-73
2022/09/24 15:20:08;;;;;;;5.80;2.42;;;;;;;;;;10252859;28;20026;-75
2022/09/24 15:25:09;;;;;;;3.13;2.40;;;;;;;;;;10253808;28;20027;-76
2022/09/24 15:30:10;;;;;;;3.63;2.78;;;;;;;;;;10254060;28;20025;-74
2022/09/24 15:35:13;;;;;;;4.45;2.97;;;;;;;;;;10254553;28;20386;-79
2022/09/24 15:40:14;;;;;;;6.18;3.03;;;;;;;;;;10258205;28;20030;-79
2022/09/24 15:45:20;;;;;;;8.73;3.03;;;;;;;;;;10258437;28;20015;-77
2022/09/24 15:50:21;;;;;;;5.93;3.10;;;;;;;;;;10258302;28;20058;-73
2022/09/24 15:55:22;;;;;;;4.07;2.53;;;;;;;;;;10250039;28;20057;-72
2022/09/24 16:00:24;;;;;;;10.25;3.25;;;;;;;;;;10272420;28;20027;-76
2022/09/24 16:05:24;;;;;;;6.05;3.45;;;;;;;;;;10253602;28;20027;-73
2022/09/24 16:10:25;;;;;;;7.35;3.70;;;;;;;;;;10257085;28;20027;-77
2022/09/24 16:15:25;;;;;;;9.35;4.78;;;;;;;;;;10259132;28;20118;-73
2022/09/24 16:20:25;;;;;;;12.20;4.40;;;;;;;;;;10274980;28;20030;-76
2022/09/24 16:25:26;;;;;;;13.23;4.68;;;;;;;;;;10254060;28;20049;-72
2022/09/24 16:30:27;;;;;;;8.45;4.50;;;;;;;;;;10253575;28;20027;-74
2022/09/24 16:35:27;;;;;;;9.13;3.83;;;;;;;;;;10273758;28;20665;-79
2022/09/24 16:40:27;;;;;;;8.48;4.43;;;;;;;;;;10256488;28;20050;-80
2022/09/24 16:45:29;;;;;;;8.20;4.10;;;;;;;;;;10273716;28;20023;-78
2022/09/24 16:50:29;;;;;;;7.68;4.82;;;;;;;;;;10249431;28;20062;-78
2022/09/24 16:55:30;;;;;;;9.57;5.10;;;;;;;;;;10251654;28;20026;-79
2022/09/24 17:00:30;;;;;;;7.60;4.13;;;;;;;;;;10252610;28;20058;-78
2022/09/24 17:05:32;;;;;;;12.65;5.50;;;;;;;;;;10252434;28;20023;-77
2022/09/24 17:10:32;;;;;;;10.02;4.38;;;;;;;;;;10249016;28;20085;-78
2022/09/24 17:15:33;;;;;;;8.38;4.78;;;;;;;;;;10255506;28;20023;-79
2022/09/24 17:20:33;;;;;;;12.10;5.50;;;;;;;;;;10253104;28;20023;-77
2022/09/24 17:25:33;;;;;;;12.27;7.13;;;;;;;;;;10248190;28;20023;-78
2022/09/24 17:30:35;;;;;;;8.63;5.07;;;;;;;;;;10248537;28;20031;-79
2022/09/24 17:35:35;;;;;;;12.73;5.80;;;;;;;;;;10250435;28;20027;-78
2022/09/24 17:40:36;;;;;;;12.65;5.20;;;;;;;;;;10253950;28;20027;-75
2022/09/24 17:45:38;;;;;;;8.40;5.32;;;;;;;;;;10248826;28;20023;-79
2022/09/24 17:50:38;;;;;;;12.88;5.68;;;;;;;;;;10272069;28;20506;-80
2022/09/24 17:55:46;;;;;;;5.72;3.97;;;;;;;;;;10253119;28;20027;-75
2022/09/24 18:00:46;;;;;;;10.63;5.93;;;;;;;;;;10243400;28;20030;-74
2022/09/24 18:05:46;;;;;;;13.40;5.00;;;;;;;;;;10256824;28;20489;-75
2022/09/24 18:10:47;;;;;;;14.55;5.63;;;;;;;;;;10279320;28;20497;-74
2022/09/24 18:15:47;;;;;;;21.65;7.70;;;;;;;;;;10261686;28;20051;-73
2022/09/24 18:20:47;;;;;;;10.07;6.20;;;;;;;;;;10259770;28;20035;-73
2022/09/24 18:25:47;;;;;;;17.52;6.93;;;;;;;;;;10262112;28;20026;-73
2022/09/24 18:30:48;;;;;;;15.60;7.32;;;;;;;;;;10263862;28;20030;-73
2022/09/24 18:35:48;;;;;;;24.92;10.32;;;;;;;;;;10265570;28;20080;-73
2022/09/24 18:40:48;;;;;;;15.90;8.70;;;;;;;;;;10260506;28;20030;-73
2022/09/24 18:45:48;;;;;;;20.13;7.63;;;;;;;;;;10259945;28;20053;-76
2022/09/24 18:50:49;;;;;;;17.38;8.05;;;;;;;;;;10253653;28;20129;-72
2022/09/24 18:55:50;;;;;;;25.38;10.32;;;;;;;;;;10265764;28;20426;-73
2022/09/24 19:00:50;;;;;;;15.82;7.63;;;;;;;;;;10255872;28;20408;-73
2022/09/24 19:05:51;;;;;;;12.02;7.00;;;;;;;;;;10277241;28;20019;-73
2022/09/24 19:10:54;;;;;;;17.50;6.22;;;;;;;;;;10261833;28;20041;-73
2022/09/24 19:15:55;;;;;;;18.25;8.93;;;;;;;;;;10259935;28;20019;-72
2022/09/24 19:20:55;;;;;;;12.85;7.95;;;;;;;;;;10273038;28;20022;-73
2022/09/24 19:26:01;;;;;;;15.45;8.00;;;;;;;;;;10258177;28;20038;-76
2022/09/24 19:31:01;;;;;;;20.77;8.65;;;;;;;;;;10251042;28;20026;-77
2022/09/24 19:36:03;;;;;;;16.67;7.50;;;;;;;;;;10262016;28;20022;-73
2022/09/24 19:41:10;;;;;;;11.68;7.13;;;;;;;;;;10258862;28;20030;-73
2022/09/24 19:46:13;;;;;;;15.55;7.20;;;;;;;;;;10258340;28;20023;-73
2022/09/24 19:51:14;;;;;;;9.05;5.20;;;;;;;;;;10273363;28;20437;-73
2022/09/24 19:56:15;;;;;;;13.85;6.82;;;;;;;;;;10259333;28;20027;-73
2022/09/24 20:01:15;;;;;;;13.48;6.25;;;;;;;;;;10262071;28;20504;-73
2022/09/24 20:06:17;;;;;;;10.80;6.57;;;;;;;;;;10257270;28;20029;-73
2022/09/24 20:11:19;;;;;;;8.60;5.28;;;;;;;;;;10260090;28;20527;-72
2022/09/24 20:16:23;;;;;;;8.95;5.88;;;;;;;;;;10277482;28;20133;-73
2022/09/24 20:21:25;;;;;;;13.10;6.45;;;;;;;;;;10252830;28;20688;-73
2022/09/24 20:31:51;;;;;;;11.18;5.40;;;;;;;;;;10283477;28;20074;-74
2022/09/24 20:36:52;;;;;;;11.47;5.47;;;;;;;;;;10259952;28;20026;-78
2022/09/24 20:41:52;;;;;;;7.97;5.50;;;;;;;;;;10277263;28;20536;-74
2022/09/24 20:46:52;;;;;;;8.60;5.17;;;;;;;;;;10260278;28;20037;-78
2022/09/24 20:51:53;;;;;;;10.90;4.93;;;;;;;;;;10281383;28;20163;-77
2022/09/24 20:56:53;;;;;;;9.70;4.82;;;;;;;;;;10264511;28;20094;-75
2022/09/24 21:01:54;;;;;;;9.75;5.10;;;;;;;;;;10264737;28;20153;-77
2022/09/24 21:06:54;;;;;;;6.85;4.47;;;;;;;;;;10264119;28;20026;-80
2022/09/24 21:11:54;;;;;;;7.55;4.45;;;;;;;;;;10264723;28;20031;-79
2022/09/24 21:16:55;;;;;;;8.35;4.43;;;;;;;;;;10264071;28;20022;-77
2022/09/24 21:21:55;;;;;;;10.57;4.65;;;;;;;;;;10263935;28;20030;-78
2022/09/24 21:26:57;;;;;;;7.03;3.97;;;;;;;;;;10262844;28;20065;-76
2022/09/24 21:31:58;;;;;;;7.35;4.35;;;;;;;;;;10261244;28;20022;-78
2022/09/24 21:36:58;;;;;;;6.07;4.10;;;;;;;;;;10262650;28;20035;-77
2022/09/24 21:41:59;;;;;;;5.88;4.18;;;;;;;;;;10263738;28;20026;-77
2022/09/24 21:46:59;;;;;;;8.35;4.13;;;;;;;;;;10263721;28;20501;-75
2022/09/24 21:52:03;;;;;;;5.85;4.30;;;;;;;;;;10263332;28;20050;-78
2022/09/24 21:57:04;;;;;;;7.45;4.35;;;;;;;;;;10263164;28;20118;-75
2022/09/24 22:02:04;;;;;;;7.03;4.17;;;;;;;;;;10263242;28;20523;-75
2022/09/24 22:07:04;;;;;;;7.22;4.70;;;;;;;;;;10262652;28;20007;-78
2022/09/24 22:12:05;;;;;;;10.93;5.03;;;;;;;;;;10280947;28;21639;-78
2022/09/24 22:17:06;;;;;;;8.32;5.13;;;;;;;;;;10265026;28;20525;-77
2022/09/24 22:22:06;;;;;;;8.60;5.53;;;;;;;;;;10262732;28;20497;-74
2022/09/24 22:27:06;;;;;;;6.95;4.78;;;;;;;;;;10280551;28;20098;-78
2022/09/24 22:32:07;;;;;;;11.75;5.93;;;;;;;;;;10262667;28;21590;-74
2022/09/24 22:37:07;;;;;;;10.37;5.73;;;;;;;;;;10266725;28;20094;-77
2022/09/24 22:42:07;;;;;;;8.70;5.90;;;;;;;;;;10270050;28;20372;-77
2022/09/24 22:47:08;;;;;;;10.13;5.25;;;;;;;;;;10287073;28;20288;-74
2022/09/24 22:52:08;;;;;;;8.00;5.25;;;;;;;;;;10267965;28;20627;-77
2022/09/24 22:57:08;;;;;;;10.27;5.68;;;;;;;;;;10271056;28;20492;-77
2022/09/24 23:02:08;;;;;;;9.55;4.88;;;;;;;;;;10269434;28;20477;-78
2022/09/24 23:07:09;;;;;;;7.88;4.95;;;;;;;;;;10269767;28;20033;-78
2022/09/24 23:12:09;;;;;;;6.30;5.00;;;;;;;;;;10269958;28;20170;-78
2022/09/24 23:17:09;;;;;;;11.38;6.40;;;;;;;;;;10269387;28;20058;-78
2022/09/24 23:22:10;;;;;;;8.93;5.63;;;;;;;;;;10268359;28;20025;-75
2022/09/24 23:27:10;;;;;;;10.27;6.53;;;;;;;;;;10268510;28;20094;-78
2022/09/24 23:32:11;;;;;;;11.63;6.75;;;;;;;;;;10267961;28;20108;-74
2022/09/24 23:37:11;;;;;;;8.85;6.07;;;;;;;;;;10268882;28;20023;-78
2022/09/24 23:42:11;;;;;;;8.57;6.50;;;;;;;;;;10267858;28;20022;-78
2022/09/24 23:47:12;;;;;;;9.60;7.07;;;;;;;;;;10266893;28;20019;-74
2022/09/24 23:52:12;;;;;;;10.85;6.35;;;;;;;;;;10285286;28;20046;-74
2022/09/24 23:57:12;;;;;;;9.38;6.10;;;;;;;;;;10267933;28;20027;-74
